Time;durP1;ratioP1;P1;durP2;ratioP2;P2;SDS_P1;SDS_P2;PMS_P1;PMS_P2;Temp;Humidity;BMP_temperature;BMP_pressure;BME280_temperature;BME280_humidity;BME280_pressure;Samples;Min_cycle;Max_cycle;Signal;HPM_P1;HPM_P2
2023/03/29 00:01:50;;;;;;;7.22;5.07;;;3.90;99.90;;;;;;5031327;28;20062;-60
2023/03/29 00:04:18;;;;;;;9.02;5.03;;;3.90;99.90;;;;;;5038307;28;20032;-60
2023/03/29 00:06:46;;;;;;;7.20;5.05;;;3.80;99.90;;;;;;5031020;28;20171;-58
2023/03/29 00:09:13;;;;;;;6.90;4.70;;;3.80;99.90;;;;;;5033400;28;20033;-60
2023/03/29 00:11:38;;;;;;;7.15;3.65;;;3.80;99.90;;;;;;5031246;28;20033;-59
2023/03/29 00:14:04;;;;;;;6.68;4.63;;;3.80;99.90;;;;;;5039581;28;20032;-59
2023/03/29 00:16:30;;;;;;;5.80;4.13;;;3.80;99.90;;;;;;5036519;28;20033;-60
2023/03/29 00:18:55;;;;;;;8.27;4.95;;;3.80;99.90;;;;;;5037795;28;20484;-59
2023/03/29 00:21:21;;;;;;;7.03;4.82;;;3.80;99.90;;;;;;5021388;28;20029;-60
2023/03/29 00:23:46;;;;;;;6.35;4.55;;;3.80;99.90;;;;;;5022642;28;20399;-59
2023/03/29 00:26:12;;;;;;;5.97;4.50;;;3.80;99.90;;;;;;5030851;28;20233;-59
2023/03/29 00:28:38;;;;;;;5.63;3.65;;;3.80;99.90;;;;;;5037682;28;20033;-59
2023/03/29 00:31:12;;;;;;;6.57;4.70;;;3.80;99.90;;;;;;5040794;28;20049;-59
2023/03/29 00:33:38;;;;;;;6.57;5.00;;;3.80;99.90;;;;;;5040866;28;20491;-60
2023/03/29 00:36:04;;;;;;;5.07;4.10;;;3.80;99.90;;;;;;5038297;28;20021;-60
2023/03/29 00:38:30;;;;;;;6.55;4.45;;;3.80;99.90;;;;;;5040468;28;20028;-59
2023/03/29 00:40:56;;;;;;;6.63;4.63;;;3.80;99.90;;;;;;5040655;28;20039;-58
2023/03/29 00:43:22;;;;;;;9.90;4.57;;;3.80;99.90;;;;;;5035426;28;20032;-59
2023/03/29 00:45:48;;;;;;;7.20;4.05;;;3.80;99.90;;;;;;5039692;28;20048;-59
2023/03/29 00:48:20;;;;;;;5.40;3.92;;;3.90;99.90;;;;;;5037802;28;20083;-59
2023/03/29 00:51:13;;;;;;;4.47;3.70;;;3.80;99.90;;;;;;5037885;28;20044;-60
2023/03/29 00:53:47;;;;;;;5.38;2.95;;;3.80;99.90;;;;;;5034936;28;20041;-59
2023/03/29 00:56:18;;;;;;;7.47;4.20;;;3.70;99.90;;;;;;5032809;28;20502;-52
2023/03/29 00:58:52;;;;;;;7.57;4.57;;;3.80;99.90;;;;;;5031348;28;20075;-59
2023/03/29 01:01:52;;;;;;;5.60;4.00;;;3.70;99.90;;;;;;5037277;28;20092;-57
2023/03/29 01:04:29;;;;;;;4.32;3.53;;;3.70;99.90;;;;;;5024388;28;20042;-57
2023/03/29 01:07:06;;;;;;;4.72;3.47;;;3.70;99.90;;;;;;5032900;28;20071;-59
2023/03/29 01:09:33;;;;;;;;;;;3.70;99.90;;;;;;5043019;28;20113;-53
2023/03/29 01:12:02;;;;;;;7.85;3.50;;;3.70;99.90;;;;;;5036077;28;19928;-58
2023/03/29 01:14:33;;;;;;;7.90;3.72;;;3.70;99.90;;;;;;5042612;28;20134;-58
2023/03/29 01:16:59;;;;;;;5.25;3.55;;;3.70;99.90;;;;;;5032723;28;20033;-56
2023/03/29 01:19:30;;;;;;;5.57;3.88;;;3.70;99.90;;;;;;5040625;28;20033;-57
2023/03/29 01:22:24;;;;;;;6.15;3.10;;;3.70;99.90;;;;;;5041244;28;20387;-58
2023/03/29 01:25:21;;;;;;;5.72;3.63;;;3.70;99.90;;;;;;5045048;28;20096;-56
2023/03/29 01:27:52;;;;;;;4.75;3.00;;;3.70;99.90;;;;;;5036674;28;20036;-58
2023/03/29 01:30:28;;;;;;;5.97;3.53;;;3.70;99.90;;;;;;5042445;28;20029;-55
2023/03/29 01:33:02;;;;;;;;;;;3.60;99.90;;;;;;5036395;28;20128;-59
2023/03/29 01:35:40;;;;;;;4.82;3.38;;;3.60;99.90;;;;;;5027883;28;19904;-55
2023/03/29 01:38:23;;;;;;;6.28;3.10;;;3.60;99.90;;;;;;5032927;28;20025;-56
2023/03/29 01:40:48;;;;;;;4.90;3.30;;;3.60;99.90;;;;;;5037131;28;20532;-56
2023/03/29 01:43:24;;;;;;;5.70;3.90;;;3.60;99.90;;;;;;5034594;28;20112;-56
2023/03/29 01:46:09;;;;;;;6.18;3.60;;;3.60;99.90;;;;;;5039231;28;20063;-58
2023/03/29 01:48:57;;;;;;;4.28;3.42;;;3.60;99.90;;;;;;5029640;28;20512;-55
2023/03/29 01:51:35;;;;;;;11.88;4.57;;;3.50;99.90;;;;;;5036368;28;20026;-55
2023/03/29 01:54:06;;;;;;;3.45;3.15;;;3.50;99.90;;;;;;5034542;28;20029;-57
2023/03/29 01:56:37;;;;;;;4.78;3.40;;;3.50;99.90;;;;;;5035743;28;20033;-58
2023/03/29 01:59:10;;;;;;;6.20;3.65;;;3.50;99.90;;;;;;5040191;28;20474;-56
2023/03/29 02:01:47;;;;;;;9.23;4.00;;;3.50;99.90;;;;;;5039837;28;20546;-56
2023/03/29 02:04:16;;;;;;;5.13;3.45;;;3.50;99.90;;;;;;5036866;28;20025;-53
2023/03/29 02:06:43;;;;;;;4.88;3.38;;;3.40;99.90;;;;;;5034845;28;20101;-58
2023/03/29 02:09:09;;;;;;;6.93;3.90;;;3.40;99.90;;;;;;5042903;28;20103;-57
2023/03/29 02:11:36;;;;;;;5.25;3.80;;;3.40;99.90;;;;;;5027757;28;20124;-56
2023/03/29 02:14:02;;;;;;;7.45;3.95;;;3.40;99.90;;;;;;5037265;28;20124;-54
2023/03/29 02:16:27;;;;;;;6.60;3.95;;;3.40;99.90;;;;;;5038100;28;20044;-54
2023/03/29 02:18:55;;;;;;;6.10;4.05;;;3.40;99.90;;;;;;5035693;28;20034;-56
2023/03/29 02:21:28;;;;;;;4.68;3.83;;;3.40;99.90;;;;;;5031229;28;20391;-60
2023/03/29 02:23:57;;;;;;;5.40;3.25;;;3.40;99.90;;;;;;5026093;28;20036;-57
2023/03/29 02:26:23;;;;;;;4.95;3.72;;;3.30;99.90;;;;;;5031519;28;20029;-58
2023/03/29 02:28:50;;;;;;;5.95;3.53;;;3.30;99.90;;;;;;5038906;28;20418;-58
2023/03/29 02:31:29;;;;;;;5.28;3.28;;;3.30;99.90;;;;;;5040555;28;20131;-57
2023/03/29 02:34:23;;;;;;;5.70;3.40;;;3.20;99.90;;;;;;5033296;28;20049;-55
2023/03/29 02:36:58;;;;;;;5.78;4.00;;;3.20;99.90;;;;;;5035443;28;20041;-58
2023/03/29 02:39:26;;;;;;;8.40;3.60;;;3.20;99.90;;;;;;5040316;28;20020;-57
2023/03/29 02:41:53;;;;;;;5.60;3.92;;;3.10;99.90;;;;;;5038099;28;20033;-60
2023/03/29 02:44:23;;;;;;;7.35;4.18;;;3.10;99.90;;;;;;5027780;28;20033;-59
2023/03/29 02:47:04;;;;;;;6.68;4.00;;;3.10;99.90;;;;;;5034541;28;20033;-57
2023/03/29 02:49:30;;;;;;;5.97;3.33;;;3.10;99.90;;;;;;5038806;28;20138;-58
2023/03/29 02:51:58;;;;;;;4.53;3.47;;;3.10;99.90;;;;;;5032159;28;20034;-59
2023/03/29 02:54:28;;;;;;;6.40;3.65;;;3.10;99.90;;;;;;5041163;28;20022;-57
2023/03/29 02:56:59;;;;;;;5.63;3.47;;;3.10;99.90;;;;;;5038557;28;20021;-53
2023/03/29 02:59:25;;;;;;;4.63;2.95;;;3.00;99.90;;;;;;5039961;28;20026;-59
2023/03/29 03:01:51;;;;;;;5.10;3.17;;;3.00;99.90;;;;;;5037626;28;20034;-55
2023/03/29 03:04:19;;;;;;;5.30;3.63;;;3.00;99.90;;;;;;5033985;28;20033;-59
2023/03/29 03:06:45;;;;;;;3.20;2.50;;;3.00;99.90;;;;;;5037596;28;20104;-60
2023/03/29 03:09:11;;;;;;;5.00;3.17;;;3.00;99.90;;;;;;5040263;28;20025;-59
2023/03/29 03:11:37;;;;;;;6.28;3.10;;;3.00;99.90;;;;;;5039680;28;20369;-58
2023/03/29 03:14:02;;;;;;;8.35;2.97;;;3.00;99.90;;;;;;5039977;28;20364;-60
2023/03/29 03:16:28;;;;;;;8.38;3.00;;;3.00;99.90;;;;;;5041625;28;20484;-59
2023/03/29 03:18:54;;;;;;;6.95;3.33;;;3.00;99.90;;;;;;5038149;28;20029;-56
2023/03/29 03:21:21;;;;;;;6.22;2.72;;;3.00;99.90;;;;;;5040222;28;20099;-59
2023/03/29 03:23:47;;;;;;;5.97;3.08;;;3.00;99.90;;;;;;5038360;28;20056;-59
2023/03/29 03:26:14;;;;;;;5.47;3.13;;;3.00;99.90;;;;;;5039816;28;20031;-58
2023/03/29 03:28:39;;;;;;;7.28;3.58;;;3.00;99.90;;;;;;5039237;28;20045;-55
2023/03/29 03:31:05;;;;;;;6.20;2.97;;;3.00;99.90;;;;;;5039401;28;20060;-56
2023/03/29 03:33:31;;;;;;;3.25;2.70;;;3.00;99.90;;;;;;5041677;28;20085;-58
2023/03/29 03:36:01;;;;;;;5.38;3.22;;;2.90;99.90;;;;;;5039012;28;20029;-57
2023/03/29 03:38:30;;;;;;;6.43;3.17;;;2.90;99.90;;;;;;5039830;28;20585;-57
2023/03/29 03:40:57;;;;;;;5.38;3.42;;;2.90;99.90;;;;;;5036581;28;20029;-55
2023/03/29 03:43:23;;;;;;;8.05;2.72;;;2.90;99.90;;;;;;5034129;28;20033;-59
2023/03/29 03:45:49;;;;;;;4.60;2.38;;;2.90;99.90;;;;;;5029796;28;20033;-57
2023/03/29 03:48:15;;;;;;;5.75;2.88;;;2.90;99.90;;;;;;5054761;28;20024;-59
2023/03/29 03:50:46;;;;;;;6.32;2.67;;;2.90;99.90;;;;;;5038907;28;20463;-59
2023/03/29 03:53:12;;;;;;;6.15;3.17;;;2.90;99.90;;;;;;5036773;28;20076;-55
2023/03/29 03:55:38;;;;;;;5.10;2.88;;;2.90;99.90;;;;;;5037300;28;20025;-58
2023/03/29 03:58:04;;;;;;;3.85;2.55;;;2.90;99.90;;;;;;5038435;28;20519;-57
2023/03/29 04:00:29;;;;;;;7.28;2.67;;;2.90;99.90;;;;;;5039281;28;20040;-59
2023/03/29 04:02:55;;;;;;;5.85;2.92;;;2.80;99.90;;;;;;5035748;28;20025;-52
2023/03/29 04:05:21;;;;;;;4.18;2.90;;;2.90;99.90;;;;;;5028416;28;20029;-56
2023/03/29 04:07:46;;;;;;;6.07;3.75;;;2.80;99.90;;;;;;5038070;28;20079;-54
2023/03/29 04:10:12;;;;;;;11.32;3.63;;;2.80;99.90;;;;;;5043457;28;20017;-55
2023/03/29 04:12:38;;;;;;;7.43;3.65;;;2.80;99.90;;;;;;5044036;28;20028;-58
2023/03/29 04:15:05;;;;;;;2.85;2.50;;;2.80;99.90;;;;;;5042860;28;20456;-60
2023/03/29 04:17:31;;;;;;;6.75;3.00;;;2.80;99.90;;;;;;5034628;28;20384;-54
2023/03/29 04:19:57;;;;;;;4.45;3.42;;;2.80;99.90;;;;;;5032508;28;20029;-57
2023/03/29 04:22:24;;;;;;;7.00;3.40;;;2.80;99.90;;;;;;5047465;28;20494;-57
2023/03/29 04:24:50;;;;;;;5.50;3.72;;;2.80;99.90;;;;;;5041295;28;20027;-56
2023/03/29 04:27:16;;;;;;;6.85;3.22;;;2.80;99.90;;;;;;5040775;28;20032;-56
2023/03/29 04:29:43;;;;;;;3.47;2.95;;;2.80;99.90;;;;;;5042530;28;20379;-57
2023/03/29 04:32:10;;;;;;;5.05;3.00;;;2.70;99.90;;;;;;5041164;28;20549;-55
2023/03/29 04:34:36;;;;;;;4.90;3.08;;;2.80;99.90;;;;;;5043169;28;20024;-58
2023/03/29 04:37:02;;;;;;;3.78;2.80;;;2.80;99.90;;;;;;5039627;28;20028;-54
2023/03/29 04:39:32;;;;;;;11.40;3.70;;;2.70;99.90;;;;;;5041039;28;20021;-56
2023/03/29 04:41:58;;;;;;;4.55;3.35;;;2.70;99.90;;;;;;5040754;28;20031;-55
2023/03/29 04:44:25;;;;;;;5.28;2.85;;;2.70;99.90;;;;;;5031618;28;20389;-55
2023/03/29 04:46:51;;;;;;;8.20;3.58;;;2.70;99.90;;;;;;5044732;28;20340;-57
2023/03/29 04:49:17;;;;;;;9.80;3.47;;;2.70;99.90;;;;;;5037765;28;20128;-55
2023/03/29 04:51:42;;;;;;;6.68;3.00;;;2.70;99.90;;;;;;5046340;28;20079;-56
2023/03/29 04:54:08;;;;;;;7.85;3.40;;;2.70;99.90;;;;;;5039402;28;20024;-56
2023/03/29 04:56:34;;;;;;;6.32;3.30;;;2.70;99.90;;;;;;5044543;28;20356;-56
2023/03/29 04:59:00;;;;;;;7.30;3.17;;;2.70;99.90;;;;;;5044260;28;20032;-59
2023/03/29 05:01:25;;;;;;;7.50;4.03;;;2.70;99.90;;;;;;5037621;28;20500;-56
2023/03/29 05:03:51;;;;;;;3.95;3.30;;;2.70;99.90;;;;;;5045319;28;20539;-54
2023/03/29 05:06:17;;;;;;;9.13;3.88;;;2.70;99.90;;;;;;5039506;28;20494;-56
2023/03/29 05:08:43;;;;;;;5.95;3.92;;;2.80;99.90;;;;;;5045826;28;20515;-57
2023/03/29 05:11:10;;;;;;;5.78;4.20;;;2.70;99.90;;;;;;5039479;28;20014;-56
2023/03/29 05:13:36;;;;;;;4.75;3.60;;;2.70;99.90;;;;;;5046049;28;20025;-57
2023/03/29 05:16:03;;;;;;;7.85;4.43;;;2.80;99.90;;;;;;5039400;28;20522;-57
2023/03/29 05:18:30;;;;;;;7.53;4.85;;;2.80;99.90;;;;;;5026479;28;20068;-53
2023/03/29 05:20:57;;;;;;;8.38;4.88;;;2.80;99.90;;;;;;5043330;28;20017;-55
2023/03/29 05:23:23;;;;;;;6.90;5.60;;;2.80;99.90;;;;;;5038319;28;20051;-58
2023/03/29 05:25:51;;;;;;;9.73;5.10;;;2.80;99.90;;;;;;5036293;28;20626;-55
2023/03/29 05:28:18;;;;;;;8.23;5.40;;;2.80;99.90;;;;;;5033629;28;20060;-57
2023/03/29 05:30:43;;;;;;;14.25;9.23;;;2.90;99.90;;;;;;5045193;28;20119;-59
2023/03/29 05:33:10;;;;;;;14.18;9.48;;;2.90;99.90;;;;;;5039074;28;20104;-56
2023/03/29 05:35:36;;;;;;;10.98;6.97;;;2.90;99.90;;;;;;5038693;28;20494;-58
2023/03/29 05:38:03;;;;;;;8.77;6.05;;;2.90;99.90;;;;;;5045007;28;20030;-60
2023/03/29 05:40:30;;;;;;;9.48;5.80;;;2.90;99.90;;;;;;5036887;28;20025;-60
2023/03/29 05:42:56;;;;;;;9.15;6.90;;;3.00;99.90;;;;;;5038602;28;20017;-55
2023/03/29 05:45:23;;;;;;;9.48;5.95;;;3.00;99.90;;;;;;5020830;28;20057;-56
2023/03/29 05:47:48;;;;;;;8.18;5.00;;;3.00;99.90;;;;;;5039022;28;20013;-54
2023/03/29 05:50:14;;;;;;;8.93;4.80;;;3.00;99.90;;;;;;5034639;28;20667;-57
2023/03/29 05:52:40;;;;;;;6.13;4.47;;;3.00;99.90;;;;;;5040572;28;20025;-56
2023/03/29 05:55:06;;;;;;;9.50;4.95;;;3.00;99.90;;;;;;5035460;28;20021;-54
2023/03/29 05:57:36;;;;;;;10.13;4.93;;;3.10;99.90;;;;;;5041267;28;20433;-57
2023/03/29 06:00:04;;;;;;;7.28;4.72;;;3.10;99.90;;;;;;5039520;28;20024;-57
2023/03/29 06:02:30;;;;;;;8.73;5.43;;;3.10;99.90;;;;;;5036141;28;20044;-55
2023/03/29 06:04:56;;;;;;;7.90;4.88;;;3.20;99.90;;;;;;5038614;28;20025;-55
2023/03/29 06:07:22;;;;;;;9.98;5.55;;;3.20;99.90;;;;;;5041236;28;20066;-57
2023/03/29 06:09:47;;;;;;;9.90;4.82;;;3.20;99.90;;;;;;5038858;28;20014;-58
2023/03/29 06:12:13;;;;;;;11.00;5.47;;;3.20;99.90;;;;;;5039961;22;20045;-48
2023/03/29 06:14:39;;;;;;;7.60;4.95;;;3.30;99.90;;;;;;5023896;28;20036;-47
2023/03/29 06:17:04;;;;;;;8.98;5.43;;;3.30;99.90;;;;;;5006289;28;20045;-48
2023/03/29 06:19:30;;;;;;;8.77;5.50;;;3.30;99.90;;;;;;5028745;28;20032;-47
2023/03/29 06:21:56;;;;;;;8.15;4.85;;;3.40;99.90;;;;;;5015751;28;20112;-48
2023/03/29 06:24:23;;;;;;;9.07;5.68;;;3.40;99.90;;;;;;5028371;28;20292;-50
2023/03/29 06:26:49;;;;;;;8.60;5.65;;;3.50;99.90;;;;;;5010004;28;20021;-52
2023/03/29 06:29:15;;;;;;;7.43;5.53;;;3.50;99.90;;;;;;5025773;28;20032;-50
2023/03/29 06:31:41;;;;;;;9.90;5.90;;;3.50;99.90;;;;;;5021087;28;20052;-46
2023/03/29 06:34:06;;;;;;;9.13;5.20;;;3.60;99.90;;;;;;5027173;28;20013;-50
2023/03/29 06:36:33;;;;;;;8.70;5.90;;;3.60;99.90;;;;;;5004750;28;20500;-48
2023/03/29 06:38:59;;;;;;;10.50;5.55;;;3.60;99.90;;;;;;5025981;28;20472;-50
2023/03/29 06:41:25;;;;;;;8.82;6.63;;;3.70;99.90;;;;;;5027672;28;20367;-48
2023/03/29 06:43:51;;;;;;;11.45;6.80;;;3.70;99.90;;;;;;5017170;28;20492;-48
2023/03/29 06:46:16;;;;;;;8.57;7.07;;;3.80;99.90;;;;;;5020291;28;20041;-48
2023/03/29 06:48:42;;;;;;;11.85;6.82;;;3.90;99.90;;;;;;5025588;28;20063;-48
2023/03/29 06:51:07;;;;;;;11.05;6.78;;;3.90;99.90;;;;;;5022265;28;20025;-50
2023/03/29 06:53:33;;;;;;;9.85;6.72;;;4.00;99.90;;;;;;5017122;28;20033;-49
2023/03/29 06:56:03;;;;;;;10.45;6.68;;;4.10;99.90;;;;;;5001497;28;20018;-49
2023/03/29 06:58:29;;;;;;;8.68;6.50;;;4.20;99.90;;;;;;5025234;28;20021;-51
2023/03/29 07:01:00;;;;;;;10.38;7.78;;;4.20;99.90;;;;;;5025122;28;20103;-50
2023/03/29 07:03:26;;;;;;;10.50;6.65;;;4.30;99.90;;;;;;5028656;28;20026;-50
2023/03/29 07:06:00;;;;;;;10.88;7.70;;;4.40;99.90;;;;;;4999669;28;20099;-47
2023/03/29 07:08:30;;;;;;;9.85;7.57;;;4.40;99.90;;;;;;5010947;28;20021;-50
2023/03/29 07:10:57;;;;;;;11.13;7.28;;;4.50;99.90;;;;;;4996072;28;20096;-48
2023/03/29 07:13:23;;;;;;;12.35;8.38;;;4.60;99.90;;;;;;5026385;28;20125;-47
2023/03/29 07:15:49;;;;;;;11.90;7.90;;;4.80;99.90;;;;;;5019507;28;20635;-51
2023/03/29 07:18:16;;;;;;;11.63;7.15;;;4.80;99.90;;;;;;5027097;28;20025;-50
2023/03/29 07:20:41;;;;;;;11.55;8.25;;;4.90;99.90;;;;;;5028589;28;20028;-48
2023/03/29 07:23:08;;;;;;;11.48;7.78;;;4.90;99.90;;;;;;5024164;28;20033;-50
2023/03/29 07:25:35;;;;;;;7.95;7.07;;;5.00;99.90;;;;;;5011072;28;20025;-49
2023/03/29 07:28:00;;;;;;;10.65;7.15;;;5.10;99.90;;;;;;5022242;28;20084;-51
2023/03/29 07:30:28;;;;;;;9.50;6.00;;;5.10;99.90;;;;;;5019052;28;20041;-49
2023/03/29 07:32:54;;;;;;;10.65;6.47;;;5.30;99.90;;;;;;5022152;28;20025;-49
2023/03/29 07:35:22;;;;;;;9.02;6.93;;;5.40;99.90;;;;;;5005167;28;20026;-49
2023/03/29 07:37:47;;;;;;;8.23;5.85;;;5.40;99.90;;;;;;5024680;28;20472;-50
2023/03/29 07:40:15;;;;;;;7.88;6.53;;;5.50;99.90;;;;;;5023407;28;20025;-50
2023/03/29 07:42:47;;;;;;;7.40;5.50;;;5.60;99.90;;;;;;5027904;28;20053;-49
2023/03/29 07:45:15;;;;;;;11.85;6.35;;;5.70;99.90;;;;;;5030780;28;20033;-49
2023/03/29 07:47:42;;;;;;;9.40;5.90;;;5.70;99.90;;;;;;5031268;28;20025;-49
2023/03/29 07:50:08;;;;;;;8.00;5.55;;;5.80;99.90;;;;;;5028954;28;20476;-48
2023/03/29 07:52:37;;;;;;;7.85;5.95;;;5.90;99.90;;;;;;5027922;28;20014;-49
2023/03/29 07:55:09;;;;;;;6.72;4.82;;;5.90;99.90;;;;;;5014654;28;20116;-49
2023/03/29 07:57:35;;;;;;;7.53;5.43;;;6.00;99.90;;;;;;5030838;28;20025;-50
2023/03/29 08:00:11;;;;;;;7.93;6.10;;;6.00;99.90;;;;;;5029503;28;20033;-49
2023/03/29 08:02:38;;;;;;;7.55;5.30;;;6.10;99.90;;;;;;5026081;28;20037;-51
2023/03/29 08:05:03;;;;;;;5.50;4.82;;;6.10;99.90;;;;;;5028877;28;20013;-53
2023/03/29 08:07:29;;;;;;;9.23;5.72;;;6.10;99.90;;;;;;5023753;28;20135;-49
2023/03/29 08:09:56;;;;;;;8.63;5.45;;;6.20;99.90;;;;;;5027371;28;20026;-52
2023/03/29 08:12:21;;;;;;;10.43;5.15;;;6.30;99.90;;;;;;5023460;28;20112;-50
2023/03/29 08:14:47;;;;;;;7.43;5.20;;;6.30;99.90;;;;;;5025197;28;20105;-49
2023/03/29 08:17:12;;;;;;;5.60;4.82;;;6.30;99.90;;;;;;5021092;28;20041;-53
2023/03/29 08:19:38;;;;;;;6.43;4.63;;;6.30;99.90;;;;;;5021845;28;20022;-48
2023/03/29 08:22:04;;;;;;;6.30;4.57;;;6.30;99.90;;;;;;5031523;28;20030;-48
2023/03/29 08:24:30;;;;;;;5.43;4.80;;;6.30;99.90;;;;;;5023759;28;20115;-51
2023/03/29 08:26:55;;;;;;;6.13;4.13;;;6.40;99.90;;;;;;5027167;28;20030;-51
2023/03/29 08:29:21;;;;;;;6.72;4.80;;;6.40;99.90;;;;;;5027448;28;20299;-53
2023/03/29 08:31:46;;;;;;;6.97;5.25;;;6.50;99.90;;;;;;5026950;28;20610;-49
2023/03/29 08:34:12;;;;;;;8.77;4.85;;;6.50;99.90;;;;;;5029158;28;20029;-50
2023/03/29 08:36:39;;;;;;;7.97;4.93;;;6.50;99.90;;;;;;5009609;28;20056;-48
2023/03/29 08:39:05;;;;;;;7.10;5.03;;;6.60;99.90;;;;;;5010199;28;20488;-49
2023/03/29 08:41:37;;;;;;;7.28;4.45;;;6.70;99.90;;;;;;5028785;28;20041;-49
2023/03/29 08:44:19;;;;;;;6.80;4.57;;;6.70;99.90;;;;;;5020674;28;20037;-51
2023/03/29 08:47:08;;;;;;;7.10;4.78;;;6.80;99.90;;;;;;5029968;28;20038;-48
2023/03/29 08:49:37;;;;;;;5.78;4.30;;;6.90;99.90;;;;;;5019077;28;20041;-48
2023/03/29 08:52:19;;;;;;;11.32;5.25;;;6.90;99.90;;;;;;5026359;28;20026;-53
2023/03/29 08:54:47;;;;;;;7.38;4.15;;;7.00;99.90;;;;;;5019698;28;20025;-48
2023/03/29 08:57:26;;;;;;;6.15;4.32;;;7.10;99.90;;;;;;5026678;28;20037;-48
2023/03/29 08:59:56;;;;;;;6.05;4.68;;;7.10;99.90;;;;;;5026367;28;20358;-49
2023/03/29 09:02:25;;;;;;;5.68;4.03;;;7.10;99.90;;;;;;5026082;28;20041;-48
2023/03/29 09:04:55;;;;;;;5.05;4.50;;;7.10;99.90;;;;;;5018124;28;20459;-49
2023/03/29 09:07:21;;;;;;;8.43;4.95;;;7.20;99.90;;;;;;5029768;28;20026;-49
2023/03/29 09:09:47;;;;;;;7.57;4.65;;;7.10;99.90;;;;;;5026859;28;20479;-46
2023/03/29 09:12:15;;;;;;;5.93;4.80;;;7.20;99.90;;;;;;5023992;28;20116;-51
2023/03/29 09:15:08;;;;;;;5.32;3.92;;;7.30;99.90;;;;;;5026497;28;20109;-50
2023/03/29 09:18:20;;;;;;;6.00;3.90;;;7.30;99.90;;;;;;5024331;28;20045;-49
2023/03/29 09:21:10;;;;;;;5.85;3.97;;;7.30;99.90;;;;;;5020875;28;20124;-49
2023/03/29 09:23:50;;;;;;;5.70;4.13;;;7.40;99.90;;;;;;5017581;28;20033;-49
2023/03/29 09:26:46;;;;;;;6.90;4.05;;;7.50;99.90;;;;;;5020941;28;20033;-49
2023/03/29 09:29:38;;;;;;;4.82;4.30;;;7.60;99.90;;;;;;5019528;28;20030;-48
2023/03/29 09:32:13;;;;;;;5.57;4.40;;;7.60;99.90;;;;;;5021955;28;20032;-47
2023/03/29 09:34:53;;;;;;;6.05;4.20;;;7.70;99.90;;;;;;5023087;28;20180;-50
2023/03/29 09:37:33;;;;;;;7.95;4.07;;;7.80;99.90;;;;;;5017505;28;20181;-50
2023/03/29 09:39:59;;;;;;;5.10;3.95;;;7.80;99.90;;;;;;5025534;28;20141;-48
2023/03/29 09:42:27;;;;;;;6.05;4.10;;;7.80;99.90;;;;;;5027355;28;20368;-49
2023/03/29 09:45:00;;;;;;;4.40;3.72;;;7.80;99.90;;;;;;5021905;28;20480;-50
2023/03/29 09:47:31;;;;;;;6.90;4.25;;;7.90;99.90;;;;;;5026285;28;20053;-51
2023/03/29 09:50:03;;;;;;;5.72;4.07;;;7.90;99.90;;;;;;5029554;28;20060;-49
2023/03/29 09:52:28;;;;;;;4.20;3.55;;;7.90;99.90;;;;;;5024896;28;20065;-48
2023/03/29 09:54:54;;;;;;;8.15;6.00;;;7.90;99.90;;;;;;5010277;28;20068;-50
2023/03/29 09:57:20;;;;;;;5.95;4.35;;;7.90;99.90;;;;;;5029044;28;20144;-49
2023/03/29 09:59:47;;;;;;;5.20;3.83;;;7.90;99.90;;;;;;5027113;28;20029;-48
2023/03/29 10:02:13;;;;;;;5.10;4.10;;;7.90;99.90;;;;;;5027659;28;20587;-49
2023/03/29 10:04:41;;;;;;;5.97;3.97;;;8.00;99.90;;;;;;5025490;28;20469;-48
2023/03/29 10:07:12;;;;;;;4.22;3.83;;;8.00;99.90;;;;;;5022833;28;20447;-49
2023/03/29 10:09:38;;;;;;;7.30;4.10;;;8.10;99.90;;;;;;5020619;28;20208;-50
2023/03/29 10:12:05;;;;;;;8.70;3.90;;;8.20;99.90;;;;;;5025348;28;20032;-51
2023/03/29 10:14:34;;;;;;;5.00;3.97;;;8.30;99.90;;;;;;5019597;28;20424;-48
2023/03/29 10:17:02;;;;;;;5.38;4.18;;;8.40;99.90;;;;;;5023483;28;20041;-48
2023/03/29 10:19:33;;;;;;;4.55;4.05;;;8.50;99.90;;;;;;5025714;28;20036;-48
2023/03/29 10:22:01;;;;;;;7.75;4.43;;;8.40;99.90;;;;;;5020835;28;20033;-48
2023/03/29 10:24:27;;;;;;;7.72;4.72;;;8.50;99.90;;;;;;5025868;28;20091;-48
2023/03/29 10:27:12;;;;;;;5.57;4.53;;;8.60;99.90;;;;;;5024388;28;20068;-48
2023/03/29 10:29:41;;;;;;;5.53;4.70;;;8.60;99.90;;;;;;5023991;28;20045;-49
2023/03/29 10:32:26;;;;;;;7.50;4.47;;;8.60;99.90;;;;;;5014998;28;20038;-48
2023/03/29 10:34:53;;;;;;;8.80;4.50;;;8.70;99.90;;;;;;5001541;28;20029;-49
2023/03/29 10:37:20;;;;;;;6.22;4.20;;;8.70;99.90;;;;;;5028765;28;20021;-49
2023/03/29 10:39:47;;;;;;;6.07;4.32;;;8.70;99.90;;;;;;5021745;28;20059;-48
2023/03/29 10:42:16;;;;;;;9.60;4.82;;;8.70;99.90;;;;;;5025208;28;20077;-48
2023/03/29 10:44:50;;;;;;;5.00;4.50;;;8.80;99.90;;;;;;5016461;28;20018;-47
2023/03/29 10:47:19;;;;;;;6.80;5.07;;;8.90;99.90;;;;;;5024596;28;20084;-50
2023/03/29 10:49:57;;;;;;;7.03;4.90;;;8.90;99.90;;;;;;5023083;28;20048;-48
2023/03/29 10:52:23;;;;;;;5.90;5.10;;;8.90;99.90;;;;;;5024030;28;20093;-51
2023/03/29 10:54:51;;;;;;;7.40;5.28;;;9.00;99.90;;;;;;5023734;28;20052;-49
2023/03/29 10:57:32;;;;;;;6.18;4.55;;;9.00;99.90;;;;;;5017161;28;20502;-50
2023/03/29 11:00:22;;;;;;;7.00;5.20;;;9.10;99.90;;;;;;5022573;28;20029;-48
2023/03/29 11:03:09;;;;;;;7.10;4.75;;;9.10;99.90;;;;;;5027898;28;20080;-49
2023/03/29 11:06:00;;;;;;;5.18;4.47;;;9.10;99.90;;;;;;5023713;28;20026;-54
2023/03/29 11:08:46;;;;;;;6.55;5.10;;;9.20;99.90;;;;;;5022305;28;20022;-50
2023/03/29 11:11:20;;;;;;;8.13;4.93;;;9.20;99.90;;;;;;5022658;28;20030;-48
2023/03/29 11:13:55;;;;;;;9.20;4.97;;;9.30;99.90;;;;;;4984012;28;1037325;-48
2023/03/29 11:16:40;;;;;;;6.25;5.35;;;9.40;99.90;;;;;;5022469;28;20455;-52
2023/03/29 11:19:21;;;;;;;6.07;4.63;;;9.40;99.90;;;;;;5012751;28;20029;-48
2023/03/29 11:22:34;;;;;;;8.05;5.53;;;9.40;99.90;;;;;;5002201;28;20076;-49
2023/03/29 11:25:40;;;;;;;14.88;10.68;;;9.40;99.90;;;;;;5025144;28;20049;-47
2023/03/29 11:28:34;;;;;;;11.23;8.35;;;9.30;99.90;;;;;;4988995;28;20037;-50
2023/03/29 11:31:18;;;;;;;9.02;6.20;;;9.40;99.90;;;;;;5025437;28;20064;-49
2023/03/29 11:33:51;;;;;;;5.68;4.90;;;9.40;99.90;;;;;;5022425;28;20026;-52
2023/03/29 11:36:28;;;;;;;7.28;5.88;;;9.40;99.90;;;;;;5028631;28;20022;-52
2023/03/29 11:39:03;;;;;;;7.88;6.07;;;9.50;99.90;;;;;;4999771;28;20030;-48
2023/03/29 11:41:37;;;;;;;10.05;6.10;;;9.50;99.90;;;;;;5027251;28;20083;-48
2023/03/29 11:44:12;;;;;;;7.28;5.25;;;9.40;99.90;;;;;;5017575;28;20040;-49
2023/03/29 11:46:51;;;;;;;16.15;11.50;;;9.40;99.90;;;;;;5019172;28;20045;-50
2023/03/29 11:49:28;;;;;;;10.10;8.55;;;9.40;99.90;;;;;;4999116;28;20137;-50
2023/03/29 11:51:59;;;;;;;10.07;7.35;;;9.30;99.90;;;;;;5026881;28;20068;-49
2023/03/29 11:54:54;;;;;;;9.75;6.03;;;9.30;99.90;;;;;;5025290;28;20029;-49
2023/03/29 11:57:41;;;;;;;9.63;7.65;;;9.40;99.90;;;;;;5017583;28;20049;-48
2023/03/29 12:00:14;;;;;;;12.05;10.23;;;9.30;99.90;;;;;;5017840;28;20029;-48
2023/03/29 12:03:01;;;;;;;17.95;13.02;;;9.20;99.90;;;;;;5024481;28;20040;-48
2023/03/29 12:05:47;;;;;;;9.77;7.03;;;9.10;99.90;;;;;;5022253;28;20491;-50
2023/03/29 12:08:19;;;;;;;8.77;6.13;;;9.10;99.90;;;;;;5028656;28;20521;-50
2023/03/29 12:11:10;;;;;;;9.45;7.00;;;9.10;99.90;;;;;;5008823;28;20030;-48
2023/03/29 12:13:42;;;;;;;8.60;6.40;;;9.10;99.90;;;;;;5045676;22;20080;-57
2023/03/29 12:16:31;;;;;;;10.07;7.05;;;9.10;99.90;;;;;;5030741;28;20034;-56
2023/03/29 12:19:03;;;;;;;7.63;6.65;;;9.10;99.90;;;;;;5035382;28;20122;-58
2023/03/29 12:21:31;;;;;;;9.65;6.95;;;9.20;99.90;;;;;;5031322;28;20504;-57
2023/03/29 12:23:56;;;;;;;8.02;6.63;;;9.20;99.90;;;;;;5032337;28;20033;-57
2023/03/29 12:26:57;;;;;;;7.88;6.80;;;9.20;99.90;;;;;;5040401;28;20021;-56
2023/03/29 12:29:58;;;;;;;8.63;7.13;;;9.20;99.90;;;;;;5002539;28;20037;-59
2023/03/29 12:33:08;;;;;;;8.93;6.97;;;9.20;99.90;;;;;;5035189;28;20094;-54
2023/03/29 12:35:50;;;;;;;8.57;7.55;;;9.30;99.90;;;;;;5009577;28;20048;-57
2023/03/29 12:38:22;;;;;;;10.27;7.60;;;9.30;99.90;;;;;;5024063;28;20013;-53
2023/03/29 12:40:54;;;;;;;10.45;7.82;;;9.40;99.90;;;;;;5031978;28;20030;-57
2023/03/29 12:43:51;;;;;;;8.95;7.82;;;9.50;99.90;;;;;;5030863;28;20021;-56
2023/03/29 12:46:21;;;;;;;9.75;7.47;;;9.60;99.90;;;;;;5037962;28;20059;-59
2023/03/29 12:48:52;;;;;;;8.25;7.43;;;9.60;99.90;;;;;;5041615;28;20029;-54
2023/03/29 12:51:21;;;;;;;9.18;7.32;;;9.60;99.90;;;;;;5032000;28;20170;-54
2023/03/29 12:53:53;;;;;;;9.77;7.28;;;9.60;99.90;;;;;;5043224;28;20025;-58
2023/03/29 12:56:22;;;;;;;8.75;7.78;;;9.70;99.90;;;;;;5045489;28;20368;-54
2023/03/29 12:59:24;;;;;;;10.57;7.60;;;9.70;99.90;;;;;;5046384;28;20089;-57
2023/03/29 13:02:00;;;;;;;11.27;7.28;;;9.70;99.90;;;;;;5037901;28;20042;-57
2023/03/29 13:04:37;;;;;;;9.90;7.57;;;9.90;99.90;;;;;;5042913;28;20041;-53
2023/03/29 13:07:04;;;;;;;9.30;6.78;;;9.90;99.90;;;;;;5036674;28;20052;-55
2023/03/29 13:09:46;;;;;;;8.93;7.18;;;10.00;99.90;;;;;;5035665;28;20179;-58
2023/03/29 13:12:14;;;;;;;8.38;7.35;;;10.10;99.90;;;;;;5022225;28;20022;-57
2023/03/29 13:14:43;;;;;;;10.35;7.20;;;10.10;99.90;;;;;;5036372;28;20029;-58
2023/03/29 13:17:21;;;;;;;10.80;7.10;;;10.10;99.90;;;;;;5028684;28;20036;-58